createdAt,value
2023-03-28T00:02:22.757Z,93.05
2023-03-28T00:05:07.852Z,92.76
2023-03-28T00:07:54.096Z,92.23
2023-03-28T00:10:38.276Z,92.48
2023-03-28T00:13:23.417Z,91.88
2023-03-28T00:16:10.596Z,91.31
2023-03-28T00:18:54.832Z,90.98
2023-03-28T00:21:41.606Z,90.14
2023-03-28T00:24:28.195Z,90.30
2023-03-28T00:27:12.116Z,90.53
2023-03-28T00:29:56.089Z,89.72
2023-03-28T00:32:40.091Z,89.98
2023-03-28T00:35:24.252Z,88.79
2023-03-28T00:38:08.588Z,88.73
2023-03-28T00:40:56.285Z,88.72
2023-03-28T00:43:42.960Z,87.88
2023-03-28T00:46:33.032Z,87.17
2023-03-28T00:49:21.460Z,86.66
2023-03-28T00:52:06.411Z,86.47
2023-03-28T00:54:50.519Z,86.95
2023-03-28T00:57:38.362Z,86.56
2023-03-28T01:00:23.044Z,86.15
2023-03-28T01:03:08.091Z,86.40
2023-03-28T01:05:52.566Z,84.72
2023-03-28T01:08:40.438Z,85.04
2023-03-28T01:11:26.526Z,85.02
2023-03-28T01:14:15.433Z,84.84
2023-03-28T01:16:59.416Z,84.83
2023-03-28T01:20:00.010Z,84.15
2023-03-28T01:23:31.486Z,84.97
2023-03-28T01:26:46.575Z,84.29
2023-03-28T01:30:14.680Z,85.00
2023-03-28T01:33:41.614Z,83.93
2023-03-28T01:37:07.327Z,83.10
2023-03-28T01:40:26.324Z,82.37
2023-03-28T01:43:30.441Z,82.55
2023-03-28T01:46:19.014Z,83.49
2023-03-28T01:49:10.161Z,82.10
2023-03-28T01:51:59.653Z,81.02
2023-03-28T01:54:53.328Z,80.24
2023-03-28T01:57:46.191Z,78.99
2023-03-28T02:00:35.184Z,78.53
2023-03-28T02:03:29.415Z,79.97
2023-03-28T02:06:32.568Z,79.76
2023-03-28T02:09:24.055Z,79.60
2023-03-28T02:12:36.345Z,79.22
2023-03-28T02:15:28.175Z,79.18
2023-03-28T02:18:37.094Z,78.40
2023-03-28T02:22:05.761Z,77.97
2023-03-28T02:24:52.016Z,76.72
2023-03-28T02:28:13.996Z,77.13
2023-03-28T02:31:18.157Z,75.71
2023-03-28T02:34:03.233Z,75.61
2023-03-28T02:36:54.492Z,76.48
2023-03-28T02:39:52.107Z,77.32
2023-03-28T02:43:10.735Z,78.08
2023-03-28T02:46:18.804Z,76.55
2023-03-28T02:49:47.270Z,77.04
2023-03-28T02:52:52.378Z,76.71
2023-03-28T02:55:44.710Z,74.53
2023-03-28T02:58:40.288Z,75.97
2023-03-28T03:01:29.609Z,74.43
2023-03-28T03:04:17.407Z,76.86
2023-03-28T03:07:02.743Z,75.23
2023-03-28T03:09:54.010Z,76.63
2023-03-28T03:12:38.920Z,74.57
2023-03-28T03:15:22.867Z,73.79
2023-03-28T03:18:16.985Z,74.28
2023-03-28T03:21:01.848Z,74.68
2023-03-28T03:23:45.901Z,74.54
2023-03-28T03:26:31.154Z,73.02
2023-03-28T03:29:19.975Z,74.14
2023-03-28T03:32:03.859Z,73.58
2023-03-28T03:34:58.935Z,72.59
2023-03-28T03:37:42.847Z,72.92
2023-03-28T03:40:27.229Z,73.75
2023-03-28T03:43:11.632Z,73.13
2023-03-28T03:45:58.039Z,73.87
2023-03-28T03:48:50.003Z,73.53
2023-03-28T03:51:35.967Z,72.54
2023-03-28T03:54:20.048Z,73.86
2023-03-28T03:57:04.262Z,73.33
2023-03-28T03:59:48.689Z,72.71
2023-03-28T04:02:34.732Z,72.73
2023-03-28T04:05:19.507Z,73.59
2023-03-28T04:08:17.855Z,72.31
2023-03-28T04:11:01.858Z,72.79
2023-03-28T04:13:51.597Z,71.99
2023-03-28T04:16:40.763Z,72.61
2023-03-28T04:19:27.560Z,71.46
2023-03-28T04:22:13.166Z,72.31
2023-03-28T04:25:05.307Z,71.75
2023-03-28T04:27:54.833Z,71.59
2023-03-28T04:30:41.777Z,73.83
2023-03-28T04:33:46.650Z,72.94
2023-03-28T04:36:34.050Z,71.85
2023-03-28T04:39:22.099Z,71.73
2023-03-28T04:42:27.314Z,71.33
2023-03-28T04:45:34.121Z,71.50
2023-03-28T04:48:29.218Z,71.44
2023-03-28T04:51:13.229Z,73.26
2023-03-28T04:53:57.975Z,71.61
2023-03-28T04:57:00.637Z,71.14
2023-03-28T04:59:56.284Z,70.82
2023-03-28T05:03:01.346Z,70.96
2023-03-28T05:05:51.361Z,71.41
2023-03-28T05:08:35.572Z,71.04
2023-03-28T05:11:19.618Z,71.67
2023-03-28T05:14:03.564Z,70.90
2023-03-28T05:16:56.131Z,71.92
2023-03-28T05:20:11.228Z,71.02
2023-03-28T05:23:07.595Z,69.92
2023-03-28T05:25:56.204Z,71.36
2023-03-28T05:28:40.619Z,70.40
2023-03-28T05:31:26.165Z,69.75
2023-03-28T05:34:25.553Z,69.94
2023-03-28T05:37:09.536Z,69.27
2023-03-28T05:40:06.680Z,69.47
2023-03-28T05:42:52.969Z,68.09
2023-03-28T05:45:38.113Z,69.52
2023-03-28T05:48:29.303Z,68.99
2023-03-28T05:51:15.321Z,68.70
2023-03-28T05:53:59.333Z,67.96
2023-03-28T05:56:43.318Z,68.03
2023-03-28T05:59:27.616Z,68.13
2023-03-28T06:02:13.483Z,68.11
2023-03-28T06:04:58.817Z,68.44
2023-03-28T06:07:45.305Z,68.68
2023-03-28T06:10:32.242Z,68.79
2023-03-28T06:13:32.347Z,68.42
2023-03-28T06:16:16.573Z,69.80
2023-03-28T06:19:14.393Z,68.06
2023-03-28T06:22:06.296Z,68.08
2023-03-28T06:24:51.948Z,67.93
2023-03-28T06:27:42.756Z,67.50
2023-03-28T06:30:27.158Z,67.47
2023-03-28T06:33:12.023Z,66.46
2023-03-28T06:35:56.495Z,66.40
2023-03-28T06:38:41.325Z,68.25
2023-03-28T06:41:26.922Z,66.35
2023-03-28T06:44:11.337Z,66.19
2023-03-28T06:47:24.417Z,66.14
2023-03-28T06:50:10.372Z,64.98
2023-03-28T06:53:01.392Z,65.99
2023-03-28T06:55:45.703Z,65.33
2023-03-28T06:58:31.186Z,65.39
2023-03-28T07:01:24.250Z,64.71
2023-03-28T07:04:13.382Z,64.32
2023-03-28T07:07:02.413Z,63.77
2023-03-28T07:09:48.989Z,63.71
2023-03-28T07:12:32.976Z,63.61
2023-03-28T07:15:19.489Z,63.08
2023-03-28T07:18:05.554Z,64.41
2023-03-28T07:20:58.103Z,63.14
2023-03-28T07:23:48.372Z,65.15
2023-03-28T07:26:36.761Z,63.97
2023-03-28T07:29:20.682Z,64.13
2023-03-28T07:32:07.144Z,63.49
2023-03-28T07:34:51.188Z,63.53
2023-03-28T07:37:38.667Z,62.75
2023-03-28T07:40:48.876Z,63.11
2023-03-28T07:43:33.110Z,61.93
2023-03-28T07:46:17.459Z,63.47
2023-03-28T07:49:02.972Z,61.11
2023-03-28T07:51:48.074Z,62.46
2023-03-28T07:54:33.399Z,61.32
2023-03-28T07:57:18.119Z,60.79
2023-03-28T08:00:13.164Z,59.63
2023-03-28T08:02:59.318Z,60.38
2023-03-28T08:05:51.632Z,60.43
2023-03-28T08:08:38.069Z,60.24
2023-03-28T08:11:43.677Z,61.96
2023-03-28T08:14:27.680Z,59.01
2023-03-28T08:17:12.736Z,58.66
2023-03-28T08:19:56.845Z,58.50
2023-03-28T08:22:48.804Z,57.75
2023-03-28T08:26:05.157Z,57.30
2023-03-28T08:28:49.449Z,58.55
2023-03-28T08:31:33.743Z,59.52
2023-03-28T08:34:26.450Z,59.90
2023-03-28T08:37:13.766Z,58.19
2023-03-28T08:40:01.859Z,61.14
2023-03-28T08:43:08.279Z,58.71
2023-03-28T08:45:54.907Z,59.44
2023-03-28T08:48:42.831Z,57.75
2023-03-28T08:51:31.596Z,58.04
2023-03-28T08:54:21.339Z,56.53
2023-03-28T08:57:11.784Z,56.16
2023-03-28T09:00:08.892Z,56.50
2023-03-28T09:02:53.231Z,56.60
2023-03-28T09:05:48.211Z,60.03
2023-03-28T09:08:59.500Z,57.87
2023-03-28T09:11:57.749Z,59.64
2023-03-28T09:15:16.284Z,57.41
2023-03-28T09:18:42.656Z,56.77
2023-03-28T09:21:34.750Z,56.34
2023-03-28T09:24:43.086Z,58.06
2023-03-28T09:27:37.762Z,57.33
2023-03-28T09:30:31.237Z,57.94
2023-03-28T09:33:21.300Z,57.46
2023-03-28T09:36:12.317Z,58.75
2023-03-28T09:39:00.218Z,56.43
2023-03-28T09:41:53.846Z,56.61
2023-03-28T09:45:09.234Z,55.85
2023-03-28T09:48:20.618Z,55.25
2023-03-28T09:51:07.496Z,56.52
2023-03-28T09:53:51.448Z,56.18
2023-03-28T09:56:39.603Z,55.37
2023-03-28T09:59:37.086Z,54.66
2023-03-28T10:02:29.225Z,55.39
2023-03-28T10:05:34.623Z,53.61
2023-03-28T10:08:29.699Z,53.64
2023-03-28T10:11:22.892Z,53.52
2023-03-28T10:14:07.100Z,54.04
2023-03-28T10:16:53.085Z,57.39
2023-03-28T10:19:50.204Z,56.85
2023-03-28T10:22:40.576Z,57.94
2023-03-28T10:25:37.200Z,58.36
2023-03-28T10:28:29.627Z,59.08
2023-03-28T10:31:29.069Z,57.11
2023-03-28T10:34:28.611Z,57.87
2023-03-28T10:37:31.984Z,57.60
2023-03-28T10:40:44.161Z,58.02
2023-03-28T10:43:49.696Z,57.88
2023-03-28T10:46:47.199Z,57.81
2023-03-28T10:49:44.106Z,57.52
2023-03-28T10:52:36.624Z,57.64
2023-03-28T10:55:27.546Z,57.67
2023-03-28T10:58:42.374Z,57.71
2023-03-28T11:01:47.535Z,57.81
2023-03-28T11:04:55.224Z,58.54
2023-03-28T11:07:50.792Z,58.48
2023-03-28T11:10:50.862Z,58.89
2023-03-28T11:13:50.916Z,58.26
2023-03-28T11:16:49.842Z,60.35
2023-03-28T11:20:24.824Z,58.55
2023-03-28T11:23:44.984Z,59.39
2023-03-28T11:27:14.750Z,59.71
2023-03-28T11:30:21.306Z,60.19
2023-03-28T11:33:31.053Z,58.61
2023-03-28T11:36:24.434Z,59.05
2023-03-28T11:39:16.787Z,59.49
2023-03-28T11:42:07.410Z,59.96
2023-03-28T11:45:07.063Z,60.58
2023-03-28T11:48:05.544Z,60.48
2023-03-28T11:51:03.125Z,60.38
2023-03-28T11:54:00.448Z,59.41
2023-03-28T11:56:55.724Z,58.83
2023-03-28T12:00:06.698Z,60.05
2023-03-28T12:03:13.402Z,59.52
2023-03-28T12:06:08.995Z,60.43
2023-03-28T12:09:01.545Z,61.46
2023-03-28T12:11:57.642Z,61.77
2023-03-28T12:14:52.240Z,62.02
2023-03-28T12:17:50.561Z,62.81
2023-03-28T12:20:40.311Z,62.48
2023-03-28T12:23:39.624Z,63.57
2023-03-28T12:27:06.029Z,63.96
2023-03-28T12:29:57.316Z,66.27
2023-03-28T12:32:48.527Z,66.23
2023-03-28T12:35:48.547Z,66.78
2023-03-28T12:38:41.724Z,68.19
2023-03-28T12:41:41.924Z,69.19
2023-03-28T12:44:30.227Z,69.80
2023-03-28T12:47:20.156Z,70.49
2023-03-28T12:50:09.328Z,70.10
2023-03-28T12:52:59.156Z,70.01
2023-03-28T12:55:56.480Z,70.27
2023-03-28T12:58:41.476Z,70.80
2023-03-28T13:01:44.630Z,69.40
2023-03-28T13:05:07.147Z,70.13
2023-03-28T13:08:05.789Z,68.51
2023-03-28T13:11:06.796Z,69.30
2023-03-28T13:13:59.245Z,69.89
2023-03-28T13:16:47.846Z,71.08
2023-03-28T13:19:48.792Z,70.68
2023-03-28T13:22:35.128Z,70.70
2023-03-28T13:25:27.486Z,71.55
2023-03-28T13:28:32.520Z,73.72
2023-03-28T13:31:24.814Z,72.35
2023-03-28T13:34:22.888Z,75.62
2023-03-28T13:37:23.153Z,81.05
2023-03-28T13:40:51.374Z,81.37
2023-03-28T13:43:43.805Z,81.21
2023-03-28T13:46:32.500Z,84.56
2023-03-28T13:49:19.809Z,82.18
2023-03-28T13:52:08.525Z,82.49
2023-03-28T13:54:55.205Z,81.42
2023-03-28T13:57:40.948Z,82.48
2023-03-28T14:00:44.790Z,78.96
2023-03-28T14:03:28.943Z,80.20
2023-03-28T14:06:15.788Z,82.78
2023-03-28T14:09:02.728Z,83.91
2023-03-28T14:11:47.390Z,85.40
2023-03-28T14:14:34.334Z,86.06
2023-03-28T14:17:23.368Z,88.29
2023-03-28T14:20:08.856Z,89.25
2023-03-28T14:23:00.266Z,85.79
2023-03-28T14:25:45.247Z,89.85
2023-03-28T14:28:30.800Z,89.54
2023-03-28T14:31:15.970Z,91.16
2023-03-28T14:34:05.377Z,93.16
2023-03-28T14:36:59.019Z,92.63
2023-03-28T14:39:43.469Z,92.66
2023-03-28T14:42:32.136Z,92.05
2023-03-28T14:45:16.148Z,90.21
2023-03-28T14:48:00.125Z,91.11
2023-03-28T14:50:47.716Z,90.24
2023-03-28T14:53:37.810Z,91.00
2023-03-28T14:56:25.815Z,89.22
2023-03-28T14:59:12.955Z,87.96
2023-03-28T15:01:57.332Z,86.90
2023-03-28T15:04:41.271Z,88.00
2023-03-28T15:07:29.423Z,86.06
2023-03-28T15:10:22.408Z,86.64
2023-03-28T15:13:09.306Z,87.16
2023-03-28T15:15:57.104Z,84.76
2023-03-28T15:18:47.159Z,84.89
2023-03-28T15:21:31.060Z,85.10
2023-03-28T15:24:19.917Z,84.02
2023-03-28T15:27:04.521Z,83.28
2023-03-28T15:29:48.386Z,83.23
2023-03-28T15:32:32.226Z,82.55
2023-03-28T15:35:29.297Z,82.83
2023-03-28T15:38:20.523Z,83.58
2023-03-28T15:41:19.330Z,82.92
2023-03-28T15:44:13.364Z,82.11
2023-03-28T15:47:00.930Z,81.62
2023-03-28T15:49:45.530Z,80.30
2023-03-28T15:52:29.799Z,80.41
2023-03-28T15:55:21.271Z,79.30
2023-03-28T15:58:07.228Z,79.53
2023-03-28T16:00:52.881Z,77.66
2023-03-28T16:03:37.014Z,77.83
2023-03-28T16:06:31.841Z,78.73
2023-03-28T16:09:20.011Z,79.67
2023-03-28T16:12:05.234Z,80.81
2023-03-28T16:15:11.945Z,81.31
2023-03-28T16:18:09.256Z,78.90
2023-03-28T16:21:04.463Z,77.24
2023-03-28T16:23:48.684Z,77.85
2023-03-28T16:26:32.516Z,78.84
2023-03-28T16:29:16.848Z,79.39
2023-03-28T16:32:02.220Z,78.88
2023-03-28T16:34:46.193Z,80.66
2023-03-28T16:37:30.041Z,79.43
2023-03-28T16:40:14.419Z,78.82
2023-03-28T16:42:58.634Z,79.46
2023-03-28T16:45:42.636Z,78.69
2023-03-28T16:48:27.974Z,79.76
2023-03-28T16:51:11.756Z,80.28
2023-03-28T16:53:56.174Z,79.60
2023-03-28T16:56:40.024Z,78.17
2023-03-28T16:59:24.011Z,79.12
2023-03-28T17:02:09.162Z,79.15
2023-03-28T17:04:54.326Z,81.07
2023-03-28T17:07:38.135Z,79.74
2023-03-28T17:10:21.969Z,79.33
2023-03-28T17:13:05.844Z,79.45
2023-03-28T17:15:51.298Z,79.64
2023-03-28T17:18:36.684Z,78.94
2023-03-28T17:21:21.924Z,78.82
2023-03-28T17:24:09.250Z,77.67
2023-03-28T17:26:53.109Z,77.57
2023-03-28T17:29:37.032Z,75.62
2023-03-28T17:32:20.948Z,74.96
2023-03-28T17:35:05.211Z,76.65
2023-03-28T17:37:52.711Z,76.35
2023-03-28T17:40:39.516Z,75.74
2023-03-28T17:43:23.448Z,75.25
2023-03-28T17:46:07.369Z,74.90
2023-03-28T17:48:51.374Z,74.29
2023-03-28T17:51:35.324Z,73.18
2023-03-28T17:54:20.498Z,73.41
2023-03-28T17:57:05.033Z,73.38
2023-03-28T17:59:48.988Z,74.52
2023-03-28T18:02:32.764Z,73.57
2023-03-28T18:05:29.080Z,75.19
2023-03-28T18:08:13.536Z,75.68
2023-03-28T18:11:02.514Z,75.23
2023-03-28T18:13:46.802Z,75.97
2023-03-28T18:16:30.869Z,75.95
2023-03-28T18:19:18.344Z,78.03
2023-03-28T18:22:02.589Z,79.24
2023-03-28T18:24:46.581Z,81.18
2023-03-28T18:27:32.060Z,82.51
2023-03-28T18:30:16.002Z,84.40
2023-03-28T18:33:00.205Z,84.13
2023-03-28T18:35:44.264Z,86.73
2023-03-28T18:38:28.227Z,87.35
2023-03-28T18:41:13.158Z,86.81
2023-03-28T18:43:58.418Z,87.18
2023-03-28T18:46:42.336Z,88.67
2023-03-28T18:49:27.129Z,89.53
2023-03-28T18:52:11.031Z,89.59
2023-03-28T18:54:55.338Z,89.90
2023-03-28T18:57:40.522Z,90.75
2023-03-28T19:00:26.478Z,90.44
2023-03-28T19:03:11.086Z,90.75
2023-03-28T19:05:58.436Z,92.55
2023-03-28T19:08:42.848Z,92.21
2023-03-28T19:11:28.345Z,92.58
2023-03-28T19:14:12.723Z,91.91
2023-03-28T19:16:58.226Z,92.52
2023-03-28T19:19:42.333Z,91.94
2023-03-28T19:22:26.193Z,92.04
2023-03-28T19:25:11.257Z,90.89
2023-03-28T19:27:56.369Z,91.48
2023-03-28T19:30:40.382Z,92.05
2023-03-28T19:33:25.709Z,93.01
2023-03-28T19:36:10.234Z,92.48
2023-03-28T19:38:54.220Z,92.22
2023-03-28T19:41:38.077Z,91.63
2023-03-28T19:44:21.835Z,91.69
2023-03-28T19:47:07.086Z,91.79
2023-03-28T19:49:52.589Z,91.49
2023-03-28T19:52:38.264Z,89.99
2023-03-28T19:55:22.316Z,87.51
2023-03-28T19:58:07.548Z,87.23
2023-03-28T20:00:51.557Z,85.37
2023-03-28T20:03:35.510Z,86.14
2023-03-28T20:06:22.074Z,83.45
2023-03-28T20:09:06.199Z,83.38
2023-03-28T20:11:50.057Z,84.98
2023-03-28T20:14:33.860Z,84.66
2023-03-28T20:17:18.375Z,85.44
2023-03-28T20:20:02.179Z,85.65
2023-03-28T20:22:47.847Z,84.53
2023-03-28T20:25:33.132Z,83.78
2023-03-28T20:28:17.272Z,81.81
2023-03-28T20:31:01.214Z,82.95
2023-03-28T20:33:45.349Z,82.17
2023-03-28T20:36:29.084Z,81.93
2023-03-28T20:39:15.071Z,81.29
2023-03-28T20:42:03.039Z,82.57
2023-03-28T20:44:47.263Z,82.22
2023-03-28T20:47:31.036Z,83.45
2023-03-28T20:50:14.835Z,84.14
2023-03-28T20:52:58.536Z,86.06
2023-03-28T20:55:43.914Z,86.07
2023-03-28T20:58:28.484Z,87.65
2023-03-28T21:01:14.115Z,87.54
2023-03-28T21:04:00.549Z,88.75
2023-03-28T21:06:45.132Z,89.25
2023-03-28T21:09:29.676Z,89.32
2023-03-28T21:12:14.892Z,89.46
2023-03-28T21:14:58.553Z,89.22
2023-03-28T21:17:42.805Z,87.45
2023-03-28T21:20:27.368Z,87.57
2023-03-28T21:23:12.228Z,87.77
2023-03-28T21:25:56.481Z,87.12
2023-03-28T21:28:42.064Z,85.51
2023-03-28T21:31:28.113Z,85.12
2023-03-28T21:34:12.207Z,83.52
2023-03-28T21:36:55.917Z,81.67
2023-03-28T21:39:40.063Z,81.72
2023-03-28T21:42:24.165Z,81.92
2023-03-28T21:45:11.723Z,78.42
2023-03-28T21:47:55.583Z,76.20
2023-03-28T21:50:40.766Z,75.58
2023-03-28T21:53:24.646Z,73.99
2023-03-28T21:56:11.541Z,74.37
2023-03-28T21:58:55.316Z,73.15
2023-03-28T22:01:40.472Z,72.55
2023-03-28T22:04:24.271Z,70.47
2023-03-28T22:07:08.155Z,69.98
2023-03-28T22:09:51.807Z,70.08
2023-03-28T22:12:35.584Z,71.14
2023-03-28T22:15:19.426Z,69.69
2023-03-28T22:18:09.239Z,69.56
2023-03-28T22:20:54.064Z,69.35
2023-03-28T22:23:37.911Z,70.16
2023-03-28T22:26:21.746Z,70.83
2023-03-28T22:29:06.149Z,69.93
2023-03-28T22:31:50.063Z,74.03
2023-03-28T22:34:36.308Z,77.04
2023-03-28T22:37:20.097Z,76.69
2023-03-28T22:40:05.419Z,77.98
2023-03-28T22:42:49.482Z,77.64
2023-03-28T22:45:34.106Z,79.43
2023-03-28T22:48:20.343Z,81.01
2023-03-28T22:51:11.895Z,79.55
2023-03-28T22:54:00.455Z,79.53
2023-03-28T22:56:46.072Z,78.62
2023-03-28T22:59:30.152Z,76.49
2023-03-28T23:02:14.231Z,75.79
2023-03-28T23:04:58.703Z,74.71
2023-03-28T23:07:44.758Z,76.21
2023-03-28T23:10:28.960Z,77.06
2023-03-28T23:13:12.645Z,77.66
2023-03-28T23:15:56.427Z,78.54
2023-03-28T23:18:40.143Z,77.34
2023-03-28T23:21:24.681Z,77.84
2023-03-28T23:24:11.289Z,76.65
2023-03-28T23:26:55.239Z,73.77
2023-03-28T23:29:38.988Z,72.37
2023-03-28T23:32:22.823Z,73.48
2023-03-28T23:35:08.204Z,72.62
2023-03-28T23:37:53.344Z,71.44
2023-03-28T23:40:38.510Z,72.44
2023-03-28T23:43:22.352Z,73.73
2023-03-28T23:46:07.837Z,72.18
2023-03-28T23:48:52.012Z,75.50
2023-03-28T23:51:35.809Z,77.73
2023-03-28T23:54:19.679Z,79.27
2023-03-28T23:57:05.823Z,78.75
2023-03-28T23:59:49.631Z,79.30
